Time;durP1;ratioP1;P1;durP2;ratioP2;P2;SDS_P1;SDS_P2;PMS_P1;PMS_P2;Temp;Humidity;BMP_temperature;BMP_pressure;BME280_temperature;BME280_humidity;BME280_pressure;Samples;Min_cycle;Max_cycle;Signal;HPM_P1;HPM_P2
2023/08/18 00:02:03;;;;;;;27.23;11.02;;;17.70;99.90;;;;;;5013269;28;20037;-54
2023/08/18 00:04:29;;;;;;;24.42;10.85;;;17.70;99.90;;;;;;5030959;28;20112;-54
2023/08/18 00:06:54;;;;;;;27.55;11.45;;;17.70;99.90;;;;;;5030929;28;20021;-53
2023/08/18 00:09:20;;;;;;;22.10;10.80;;;17.60;99.90;;;;;;5030740;28;20091;-53
2023/08/18 00:11:46;;;;;;;25.15;10.75;;;17.60;99.90;;;;;;5030897;28;20083;-52
2023/08/18 00:14:11;;;;;;;22.83;10.88;;;17.60;99.90;;;;;;5030556;28;20105;-53
2023/08/18 00:16:37;;;;;;;26.55;11.30;;;17.60;99.90;;;;;;5013182;28;20479;-50
2023/08/18 00:19:03;;;;;;;27.05;11.38;;;17.60;99.90;;;;;;5030769;28;20474;-53
2023/08/18 00:21:28;;;;;;;25.25;11.50;;;17.60;99.90;;;;;;5030726;28;20033;-48
2023/08/18 00:23:54;;;;;;;24.60;11.10;;;17.60;99.90;;;;;;5030581;28;20025;-48
2023/08/18 00:26:19;;;;;;;26.45;10.98;;;17.60;99.90;;;;;;5030788;28;20387;-49
2023/08/18 00:28:45;;;;;;;28.80;11.57;;;17.60;99.90;;;;;;5012794;28;20483;-51
2023/08/18 00:31:11;;;;;;;25.58;10.82;;;17.60;99.90;;;;;;5030629;28;20053;-48
2023/08/18 00:33:36;;;;;;;28.20;11.05;;;17.60;99.90;;;;;;5012647;28;20486;-49
2023/08/18 00:36:03;;;;;;;26.40;10.77;;;17.60;99.90;;;;;;5012943;28;20451;-48
2023/08/18 00:38:29;;;;;;;30.65;11.50;;;17.60;99.90;;;;;;5012793;28;20034;-49
2023/08/18 00:40:55;;;;;;;24.58;10.07;;;17.70;99.90;;;;;;4996593;28;20036;-50
2023/08/18 00:43:22;;;;;;;24.27;10.02;;;17.70;99.90;;;;;;5030326;28;20032;-49
2023/08/18 00:45:49;;;;;;;28.20;10.93;;;17.70;99.90;;;;;;5012724;28;20187;-52
2023/08/18 00:48:16;;;;;;;25.38;11.48;;;17.60;99.90;;;;;;5012594;28;20102;-49
2023/08/18 00:50:44;;;;;;;23.13;10.73;;;17.60;99.90;;;;;;5012735;28;20033;-50
2023/08/18 00:53:10;;;;;;;26.40;11.18;;;17.70;99.90;;;;;;5012452;28;20034;-48
2023/08/18 00:55:36;;;;;;;27.50;12.07;;;17.70;99.90;;;;;;5030464;28;20383;-48
2023/08/18 00:58:02;;;;;;;25.45;11.93;;;17.70;99.90;;;;;;5030195;28;20017;-50
2023/08/18 01:00:29;;;;;;;27.77;12.63;;;17.60;99.90;;;;;;5030487;28;20569;-52
2023/08/18 01:02:55;;;;;;;28.48;11.68;;;17.60;99.90;;;;;;5030338;28;20436;-49
2023/08/18 01:05:23;;;;;;;27.85;11.45;;;17.60;99.90;;;;;;5014826;28;20440;-49
2023/08/18 01:07:49;;;;;;;29.05;11.52;;;17.60;99.90;;;;;;5016340;28;20034;-49
2023/08/18 01:10:15;;;;;;;26.60;11.40;;;17.60;99.90;;;;;;5016527;28;20025;-49
2023/08/18 01:12:45;;;;;;;26.08;11.55;;;17.60;99.90;;;;;;5016675;28;20467;-49
2023/08/18 01:15:51;;;;;;;31.15;11.90;;;17.60;99.90;;;;;;5000432;28;20125;-49
2023/08/18 01:18:19;;;;;;;27.75;12.02;;;17.60;99.90;;;;;;4984351;28;20041;-50
2023/08/18 01:20:47;;;;;;;24.65;10.65;;;17.60;99.90;;;;;;5034883;28;20141;-49
2023/08/18 01:23:13;;;;;;;31.95;13.23;;;17.60;99.90;;;;;;5017527;28;20029;-53
2023/08/18 01:25:38;;;;;;;26.67;13.57;;;17.70;99.90;;;;;;5018322;28;20417;-49
2023/08/18 01:28:06;;;;;;;32.20;12.90;;;17.60;99.90;;;;;;5018867;28;20076;-53
2023/08/18 01:30:37;;;;;;;30.42;13.10;;;17.70;99.90;;;;;;5036413;28;20422;-50
2023/08/18 01:33:19;;;;;;;34.85;14.82;;;17.70;99.90;;;;;;5017872;28;20083;-52
2023/08/18 01:35:45;;;;;;;34.13;13.73;;;17.70;99.90;;;;;;5034193;28;20087;-54
2023/08/18 01:38:14;;;;;;;30.20;13.82;;;17.70;99.90;;;;;;5033510;28;20052;-51
2023/08/18 01:40:41;;;;;;;33.00;14.60;;;17.60;99.90;;;;;;5015894;28;20036;-54
2023/08/18 01:43:07;;;;;;;31.42;14.05;;;17.60;99.90;;;;;;5015459;28;20033;-51
2023/08/18 01:45:34;;;;;;;28.90;13.20;;;17.60;99.90;;;;;;5015567;28;20565;-54
2023/08/18 01:47:59;;;;;;;32.88;15.25;;;17.60;99.90;;;;;;5033297;28;20025;-52
2023/08/18 01:50:25;;;;;;;30.60;13.65;;;17.60;99.90;;;;;;5033482;28;20506;-53
2023/08/18 01:52:51;;;;;;;35.28;15.38;;;17.60;99.90;;;;;;5033104;28;20025;-54
2023/08/18 01:55:16;;;;;;;38.17;16.17;;;17.60;99.90;;;;;;5033277;28;20025;-53
2023/08/18 01:57:42;;;;;;;37.17;16.00;;;17.60;99.90;;;;;;5015390;28;20037;-54
2023/08/18 02:00:08;;;;;;;37.35;16.33;;;17.60;99.90;;;;;;5015535;28;20033;-54
2023/08/18 02:02:38;;;;;;;33.65;15.70;;;17.50;99.90;;;;;;5033071;28;20041;-50
2023/08/18 02:05:04;;;;;;;33.03;15.48;;;17.50;99.90;;;;;;5015305;28;20456;-49
2023/08/18 02:07:30;;;;;;;33.58;14.40;;;17.50;99.90;;;;;;5015089;28;20029;-54
2023/08/18 02:09:55;;;;;;;33.53;15.35;;;17.50;99.90;;;;;;4998932;28;20394;-51
2023/08/18 02:12:21;;;;;;;30.38;15.38;;;17.50;99.90;;;;;;5015076;28;20064;-53
2023/08/18 02:14:47;;;;;;;34.90;15.05;;;17.50;99.90;;;;;;5015003;28;20398;-52
2023/08/18 02:17:13;;;;;;;35.90;15.18;;;17.50;99.90;;;;;;5014615;28;20033;-55
2023/08/18 02:19:39;;;;;;;31.20;14.52;;;17.50;99.90;;;;;;5015113;28;20039;-55
2023/08/18 02:22:05;;;;;;;35.72;14.35;;;17.50;99.90;;;;;;5014960;28;20112;-54
2023/08/18 02:24:30;;;;;;;32.17;13.82;;;17.50;99.90;;;;;;5014689;28;20075;-51
2023/08/18 02:26:56;;;;;;;32.28;14.90;;;17.50;99.90;;;;;;5014829;28;20034;-51
2023/08/18 02:29:22;;;;;;;30.35;13.55;;;17.50;99.90;;;;;;5014896;28;20037;-53
2023/08/18 02:31:47;;;;;;;28.70;12.57;;;17.50;99.90;;;;;;5014695;28;20037;-53
2023/08/18 02:34:13;;;;;;;27.27;11.93;;;17.50;99.90;;;;;;5014801;28;20033;-53
2023/08/18 02:36:39;;;;;;;28.52;12.00;;;17.50;99.90;;;;;;5032398;28;20021;-55
2023/08/18 02:39:05;;;;;;;29.05;11.60;;;17.50;99.90;;;;;;5032579;28;20037;-55
2023/08/18 02:41:31;;;;;;;25.60;10.65;;;17.50;99.90;;;;;;5014614;28;20040;-53
2023/08/18 02:43:56;;;;;;;26.10;11.32;;;17.50;99.90;;;;;;5032237;28;20200;-54
2023/08/18 02:46:22;;;;;;;28.48;11.70;;;17.50;99.90;;;;;;5014778;28;20043;-55
2023/08/18 02:48:47;;;;;;;28.00;10.88;;;17.50;99.90;;;;;;5014465;28;20086;-53
2023/08/18 02:51:13;;;;;;;26.33;10.10;;;17.50;99.90;;;;;;5032419;28;20029;-52
2023/08/18 02:53:39;;;;;;;26.55;10.77;;;17.50;99.90;;;;;;5014093;28;20061;-55
2023/08/18 02:56:05;;;;;;;20.25;9.52;;;17.50;99.90;;;;;;5032322;28;20029;-50
2023/08/18 02:58:33;;;;;;;23.42;11.57;;;17.50;99.90;;;;;;5014306;28;20029;-55
2023/08/18 03:01:03;;;;;;;25.42;12.05;;;17.50;99.90;;;;;;5032708;28;20390;-54
2023/08/18 03:03:31;;;;;;;21.90;10.27;;;17.60;99.90;;;;;;5014160;28;20025;-54
2023/08/18 03:06:07;;;;;;;25.05;11.18;;;17.50;99.90;;;;;;5014317;28;20026;-55
2023/08/18 03:08:35;;;;;;;23.20;11.50;;;17.60;99.90;;;;;;5014065;28;20039;-55
2023/08/18 03:11:01;;;;;;;25.02;10.85;;;17.60;99.90;;;;;;5014361;28;20022;-54
2023/08/18 03:13:28;;;;;;;27.77;10.95;;;17.60;99.90;;;;;;5014003;28;20075;-53
2023/08/18 03:15:54;;;;;;;27.73;11.90;;;17.60;99.90;;;;;;5032114;28;20025;-50
2023/08/18 03:18:20;;;;;;;24.40;11.38;;;17.60;99.90;;;;;;5014144;28;20037;-53
2023/08/18 03:20:49;;;;;;;29.80;11.73;;;17.50;99.90;;;;;;5014264;28;20120;-51
2023/08/18 03:23:17;;;;;;;31.10;11.52;;;17.50;99.90;;;;;;5031712;28;20051;-53
2023/08/18 03:25:43;;;;;;;28.48;11.93;;;17.50;99.90;;;;;;5031945;28;20029;-54
2023/08/18 03:28:11;;;;;;;24.02;10.60;;;17.50;99.90;;;;;;4996707;28;20026;-53
2023/08/18 03:30:37;;;;;;;29.33;11.25;;;17.50;99.90;;;;;;5031733;28;20022;-54
2023/08/18 03:33:05;;;;;;;27.95;10.68;;;17.60;99.90;;;;;;5013699;28;20030;-54
2023/08/18 03:35:32;;;;;;;31.35;12.43;;;17.60;99.90;;;;;;5013774;28;20029;-51
2023/08/18 03:38:03;;;;;;;26.88;11.80;;;17.60;99.90;;;;;;5013544;28;20029;-55
2023/08/18 03:40:31;;;;;;;22.95;10.52;;;17.60;99.90;;;;;;5013731;28;20033;-51
2023/08/18 03:42:57;;;;;;;25.55;11.43;;;17.60;99.90;;;;;;5031166;28;20030;-55
2023/08/18 03:45:23;;;;;;;27.25;12.05;;;17.60;99.90;;;;;;5031249;28;20087;-48
2023/08/18 03:47:50;;;;;;;24.60;10.98;;;17.60;99.90;;;;;;5013554;28;20449;-51
2023/08/18 03:50:18;;;;;;;27.60;11.70;;;17.60;99.90;;;;;;5013560;28;20029;-48
2023/08/18 03:52:44;;;;;;;30.33;11.75;;;17.60;99.90;;;;;;5013303;28;20033;-54
2023/08/18 03:55:10;;;;;;;27.90;11.18;;;17.60;99.90;;;;;;5013559;28;20515;-54
2023/08/18 03:57:36;;;;;;;24.48;11.13;;;17.60;99.90;;;;;;5013266;28;20030;-52
2023/08/18 04:00:03;;;;;;;26.20;11.43;;;17.60;99.90;;;;;;5031237;28;20032;-54
2023/08/18 04:02:39;;;;;;;31.27;12.15;;;17.60;99.90;;;;;;5030822;28;20148;-53
2023/08/18 04:05:06;;;;;;;32.67;11.45;;;17.60;99.90;;;;;;5013336;28;20037;-54
2023/08/18 04:07:32;;;;;;;30.00;12.20;;;17.60;99.90;;;;;;5012986;28;20032;-51
2023/08/18 04:09:58;;;;;;;27.13;11.30;;;17.60;99.90;;;;;;5031291;28;20025;-54
2023/08/18 04:12:24;;;;;;;27.63;11.70;;;17.60;99.90;;;;;;5030707;28;20378;-51
2023/08/18 04:14:49;;;;;;;28.13;11.40;;;17.60;99.90;;;;;;5013370;28;20040;-54
2023/08/18 04:17:16;;;;;;;32.83;12.45;;;17.60;99.90;;;;;;5013536;28;20462;-53
2023/08/18 04:19:43;;;;;;;29.77;12.07;;;17.70;99.90;;;;;;5013253;28;20032;-54
2023/08/18 04:22:10;;;;;;;33.90;12.65;;;17.70;99.90;;;;;;5013108;28;20029;-55
2023/08/18 04:24:37;;;;;;;35.80;11.95;;;17.70;99.90;;;;;;5012830;28;20026;-54
2023/08/18 04:27:03;;;;;;;29.83;12.65;;;17.70;99.90;;;;;;5030522;28;20017;-52
2023/08/18 04:29:29;;;;;;;31.73;11.57;;;17.70;99.90;;;;;;5012963;28;20037;-52
2023/08/18 04:31:55;;;;;;;29.13;11.55;;;17.70;99.90;;;;;;5012989;28;20482;-50
2023/08/18 04:34:21;;;;;;;31.50;12.48;;;17.60;99.90;;;;;;5030550;28;20033;-54
2023/08/18 04:36:46;;;;;;;34.53;13.55;;;17.60;99.90;;;;;;5012675;28;20033;-53
2023/08/18 04:39:12;;;;;;;29.55;11.60;;;17.60;99.90;;;;;;5032679;28;20040;-54
2023/08/18 04:41:38;;;;;;;33.83;12.90;;;17.60;99.90;;;;;;5016925;28;20076;-55
2023/08/18 04:44:04;;;;;;;39.47;12.75;;;17.60;99.90;;;;;;5034477;28;20095;-54
2023/08/18 04:46:31;;;;;;;34.75;12.20;;;17.60;99.90;;;;;;5016883;28;20052;-54
2023/08/18 04:49:03;;;;;;;32.65;12.95;;;17.60;99.90;;;;;;5016913;28;20524;-53
2023/08/18 04:51:29;;;;;;;36.33;12.35;;;17.60;99.90;;;;;;5016711;28;20029;-54
2023/08/18 04:53:55;;;;;;;31.15;11.43;;;17.60;99.90;;;;;;5016806;28;20409;-51
2023/08/18 04:56:21;;;;;;;32.95;11.82;;;17.70;99.90;;;;;;5016950;28;20038;-54
2023/08/18 04:58:47;;;;;;;31.80;12.45;;;17.60;99.90;;;;;;5016310;28;20033;-54
2023/08/18 05:01:13;;;;;;;30.10;12.55;;;17.60;99.90;;;;;;5000575;28;20037;-52
2023/08/18 05:03:38;;;;;;;31.90;13.05;;;17.60;99.90;;;;;;5016375;28;20192;-54
2023/08/18 05:06:08;;;;;;;28.73;11.40;;;17.60;99.90;;;;;;5016642;28;20029;-52
2023/08/18 05:08:36;;;;;;;24.73;11.32;;;17.60;99.90;;;;;;5016170;28;20071;-49
2023/08/18 05:11:11;;;;;;;30.38;12.02;;;17.60;99.90;;;;;;5016545;28;20401;-54
2023/08/18 05:13:38;;;;;;;33.22;12.57;;;17.60;99.90;;;;;;5033961;28;20087;-53
2023/08/18 05:16:04;;;;;;;29.63;11.40;;;17.60;99.90;;;;;;5016586;28;20445;-50
2023/08/18 05:18:30;;;;;;;31.15;11.68;;;17.60;99.90;;;;;;5034146;28;20053;-54
2023/08/18 05:21:00;;;;;;;33.75;12.07;;;17.60;99.90;;;;;;5034495;28;20100;-52
2023/08/18 05:23:26;;;;;;;28.77;11.55;;;17.60;99.90;;;;;;5033832;28;20393;-53
2023/08/18 05:25:54;;;;;;;32.78;11.05;;;17.70;99.90;;;;;;5033932;28;20055;-51
2023/08/18 05:28:25;;;;;;;30.70;12.27;;;17.70;99.90;;;;;;5033879;28;20032;-53
2023/08/18 05:30:55;;;;;;;30.60;11.93;;;17.70;99.90;;;;;;5033921;28;20025;-53
2023/08/18 05:33:20;;;;;;;29.33;11.52;;;17.70;99.90;;;;;;5033531;28;20030;-53
2023/08/18 05:35:49;;;;;;;27.85;12.05;;;17.70;99.90;;;;;;5033811;28;20041;-51
2023/08/18 05:38:15;;;;;;;;;;;17.70;99.90;;;;;;5034085;28;20132;-51
2023/08/18 05:40:45;;;;;;;27.15;10.73;;;17.60;99.90;;;;;;5033688;28;20343;-53
2023/08/18 05:43:12;;;;;;;27.58;12.13;;;17.60;99.90;;;;;;5015941;28;20034;-54
2023/08/18 05:45:38;;;;;;;31.45;11.63;;;17.70;99.90;;;;;;5033552;28;20521;-51
2023/08/18 05:48:05;;;;;;;31.02;12.88;;;17.60;99.90;;;;;;5033362;28;20045;-53
2023/08/18 05:50:31;;;;;;;28.02;11.77;;;17.60;99.90;;;;;;5032535;28;20021;-53
2023/08/18 05:52:57;;;;;;;29.67;11.32;;;17.60;99.90;;;;;;5033266;28;20466;-53
2023/08/18 05:55:23;;;;;;;31.27;12.40;;;17.70;99.90;;;;;;5033809;28;20038;-53
2023/08/18 05:57:50;;;;;;;32.53;13.13;;;17.70;99.90;;;;;;5015398;28;20078;-54
2023/08/18 06:00:16;;;;;;;29.70;13.38;;;17.70;99.90;;;;;;5033456;28;20120;-54
2023/08/18 06:02:44;;;;;;;28.73;11.93;;;17.60;99.90;;;;;;5033403;28;20434;-54
2023/08/18 06:05:11;;;;;;;30.88;12.23;;;17.70;99.90;;;;;;5033251;28;20029;-54
2023/08/18 06:07:39;;;;;;;30.08;12.07;;;17.70;99.90;;;;;;5032798;28;20026;-53
2023/08/18 06:10:06;;;;;;;32.50;13.27;;;17.70;99.90;;;;;;5033107;28;20040;-54
2023/08/18 06:12:32;;;;;;;37.13;13.55;;;17.70;99.90;;;;;;5032974;28;20029;-54
2023/08/18 06:14:58;;;;;;;28.70;12.63;;;17.70;99.90;;;;;;5033082;28;20084;-52
2023/08/18 06:17:23;;;;;;;28.83;11.90;;;17.70;99.90;;;;;;5032948;28;20156;-54
2023/08/18 06:19:49;;;;;;;28.55;11.05;;;17.70;99.90;;;;;;5032998;28;20036;-53
2023/08/18 06:22:14;;;;;;;32.55;12.18;;;17.70;99.90;;;;;;5033277;28;20029;-54
2023/08/18 06:24:41;;;;;;;30.90;12.18;;;17.70;99.90;;;;;;5032952;28;20109;-54
2023/08/18 06:27:07;;;;;;;29.17;12.15;;;17.70;99.90;;;;;;5032576;28;20033;-54
2023/08/18 06:29:32;;;;;;;27.00;11.40;;;17.70;99.90;;;;;;5033409;28;20040;-54
2023/08/18 06:31:58;;;;;;;33.00;11.80;;;17.70;99.90;;;;;;5032601;28;20030;-52
2023/08/18 06:34:23;;;;;;;31.35;12.60;;;17.70;99.90;;;;;;5032757;28;20073;-52
2023/08/18 06:36:49;;;;;;;35.80;13.45;;;17.70;99.90;;;;;;5032614;28;20036;-53
2023/08/18 06:39:15;;;;;;;29.85;12.55;;;17.70;99.90;;;;;;5032926;28;20112;-54
2023/08/18 06:41:42;;;;;;;27.52;11.75;;;17.70;99.90;;;;;;5032687;28;20041;-49
2023/08/18 06:44:12;;;;;;;35.30;12.82;;;17.80;99.90;;;;;;5015365;28;20636;-50
2023/08/18 06:46:38;;;;;;;34.35;13.38;;;17.70;99.90;;;;;;5032660;28;20117;-50
2023/08/18 06:49:04;;;;;;;30.13;12.13;;;17.80;99.90;;;;;;5032904;28;20030;-49
2023/08/18 06:51:29;;;;;;;32.35;12.48;;;17.80;99.90;;;;;;5032943;28;20030;-49
2023/08/18 06:53:55;;;;;;;28.05;12.05;;;17.90;99.90;;;;;;5032867;28;20041;-47
2023/08/18 06:56:21;;;;;;;34.35;12.85;;;17.90;99.90;;;;;;5032856;28;20029;-47
2023/08/18 06:58:47;;;;;;;33.63;13.55;;;17.90;99.90;;;;;;5032888;28;20156;-48
2023/08/18 07:01:12;;;;;;;31.58;12.65;;;17.90;99.90;;;;;;5033223;28;20167;-49
2023/08/18 07:03:38;;;;;;;32.53;12.40;;;17.90;99.90;;;;;;5033077;28;20044;-53
2023/08/18 07:06:04;;;;;;;27.70;11.43;;;17.90;99.90;;;;;;5033723;28;20030;-52
2023/08/18 07:08:30;;;;;;;34.03;13.27;;;17.90;99.90;;;;;;5032817;28;20038;-54
2023/08/18 07:10:56;;;;;;;37.17;12.65;;;17.90;99.90;;;;;;5032133;28;20026;-53
2023/08/18 07:13:22;;;;;;;31.35;13.60;;;18.00;99.90;;;;;;5031759;28;20033;-54
2023/08/18 07:15:48;;;;;;;31.58;13.25;;;18.00;99.90;;;;;;5032005;28;20037;-52
2023/08/18 07:18:14;;;;;;;33.38;13.35;;;18.00;99.90;;;;;;5031599;28;20433;-54
2023/08/18 07:20:44;;;;;;;31.98;13.95;;;18.00;99.90;;;;;;5031690;28;20037;-53
2023/08/18 07:23:10;;;;;;;33.75;13.43;;;18.10;99.90;;;;;;5031552;28;20308;-53
2023/08/18 07:25:37;;;;;;;34.90;13.75;;;18.10;99.90;;;;;;5031635;28;20033;-52
2023/08/18 07:28:04;;;;;;;32.78;13.18;;;18.20;99.90;;;;;;5013662;28;20552;-53
2023/08/18 07:30:29;;;;;;;31.88;13.35;;;18.20;99.90;;;;;;5031659;28;20026;-54
2023/08/18 07:32:56;;;;;;;29.40;13.27;;;18.20;99.90;;;;;;5031176;28;20497;-54
2023/08/18 07:35:22;;;;;;;33.70;12.68;;;18.20;99.90;;;;;;5031447;28;20033;-54
2023/08/18 07:37:48;;;;;;;32.95;12.82;;;18.30;99.90;;;;;;5031313;28;20029;-54
2023/08/18 07:40:13;;;;;;;27.15;12.35;;;18.30;99.90;;;;;;5031423;28;20030;-54
2023/08/18 07:42:39;;;;;;;29.77;12.07;;;18.30;99.90;;;;;;5013447;28;20029;-53
2023/08/18 07:45:07;;;;;;;31.63;12.80;;;18.40;99.90;;;;;;5031303;28;20045;-54
2023/08/18 07:47:34;;;;;;;27.65;12.73;;;18.50;99.90;;;;;;5030936;28;20474;-52
2023/08/18 07:50:00;;;;;;;27.48;12.60;;;18.50;99.90;;;;;;5031281;28;20030;-54
2023/08/18 07:52:25;;;;;;;26.13;12.00;;;18.60;99.90;;;;;;5030925;28;20029;-54
2023/08/18 07:54:51;;;;;;;25.45;10.95;;;18.60;99.90;;;;;;5031208;28;20033;-54
2023/08/18 07:57:17;;;;;;;24.58;11.63;;;18.70;99.90;;;;;;5030979;28;20087;-53
2023/08/18 07:59:42;;;;;;;23.85;10.95;;;18.90;99.90;;;;;;5031222;28;20036;-53
2023/08/18 08:02:08;;;;;;;22.95;11.02;;;18.90;99.90;;;;;;5030761;28;20040;-53
2023/08/18 08:04:34;;;;;;;17.73;9.15;;;18.90;99.90;;;;;;5013353;28;20514;-54
2023/08/18 08:06:59;;;;;;;18.73;9.50;;;19.00;99.90;;;;;;5030929;28;20025;-51
2023/08/18 08:09:26;;;;;;;18.75;8.82;;;19.10;99.90;;;;;;5030789;28;20032;-50
2023/08/18 08:11:52;;;;;;;16.58;7.95;;;19.20;99.90;;;;;;5030886;28;20052;-54
2023/08/18 08:14:19;;;;;;;15.43;7.82;;;19.20;99.90;;;;;;5030676;28;20037;-54
2023/08/18 08:16:45;;;;;;;15.93;8.25;;;19.30;99.90;;;;;;5030504;28;20095;-53
2023/08/18 08:19:13;;;;;;;14.05;7.70;;;19.30;99.90;;;;;;5030801;28;20037;-52
2023/08/18 08:21:42;;;;;;;17.92;8.35;;;19.40;99.90;;;;;;5012928;28;20573;-54
2023/08/18 08:24:07;;;;;;;14.10;7.25;;;19.50;99.90;;;;;;5030675;28;20088;-52
2023/08/18 08:26:34;;;;;;;15.38;7.60;;;19.50;99.90;;;;;;5013082;28;20041;-54
2023/08/18 08:29:00;;;;;;;15.00;7.68;;;19.60;99.90;;;;;;5030668;28;20026;-51
2023/08/18 08:31:25;;;;;;;15.82;7.90;;;19.60;99.90;;;;;;5030413;28;20051;-53
2023/08/18 08:33:51;;;;;;;13.07;7.22;;;19.70;99.90;;;;;;5030589;28;20021;-53
2023/08/18 08:36:16;;;;;;;18.02;8.27;;;19.70;99.90;;;;;;5012884;28;20026;-53
2023/08/18 08:38:42;;;;;;;16.00;8.20;;;19.70;99.90;;;;;;5030482;28;20025;-54
2023/08/18 08:41:08;;;;;;;15.85;8.32;;;19.80;99.90;;;;;;5030682;28;20510;-53
2023/08/18 08:43:34;;;;;;;13.13;7.43;;;19.80;99.90;;;;;;5030236;28;20076;-52
2023/08/18 08:46:00;;;;;;;17.90;9.68;;;19.90;99.90;;;;;;5030424;28;20036;-54
2023/08/18 08:48:34;;;;;;;14.82;7.88;;;20.00;99.90;;;;;;5030303;28;20386;-54
2023/08/18 08:51:04;;;;;;;14.45;7.68;;;20.00;99.90;;;;;;5030634;28;20052;-52
2023/08/18 08:53:36;;;;;;;15.55;8.73;;;20.10;99.90;;;;;;5030403;28;20032;-54
2023/08/18 08:56:03;;;;;;;17.15;9.70;;;20.10;99.90;;;;;;5030466;28;20061;-54
2023/08/18 08:58:31;;;;;;;15.65;8.25;;;20.10;99.90;;;;;;5030201;28;20030;-54
2023/08/18 09:01:01;;;;;;;16.90;9.23;;;20.20;99.90;;;;;;5030586;28;20486;-54
2023/08/18 09:03:29;;;;;;;16.65;8.88;;;20.30;99.90;;;;;;5030163;28;20076;-50
2023/08/18 09:05:56;;;;;;;13.15;7.97;;;20.40;99.90;;;;;;5030440;28;20087;-54
2023/08/18 09:08:21;;;;;;;14.00;7.40;;;20.50;99.90;;;;;;5030143;28;20041;-54
2023/08/18 09:10:48;;;;;;;15.00;8.27;;;20.70;99.90;;;;;;5030387;28;20025;-53
2023/08/18 09:13:13;;;;;;;15.52;8.43;;;20.90;99.90;;;;;;5030184;28;20030;-51
2023/08/18 09:15:44;;;;;;;14.18;8.32;;;21.00;99.90;;;;;;5030208;28;20092;-50
2023/08/18 09:18:16;;;;;;;15.18;8.60;;;21.10;99.90;;;;;;5030165;28;20038;-52
2023/08/18 09:20:45;;;;;;;13.15;8.18;;;21.30;99.90;;;;;;5030263;28;20478;-53
2023/08/18 09:23:11;;;;;;;16.10;8.50;;;21.30;99.90;;;;;;5029982;28;20079;-53
2023/08/18 09:25:37;;;;;;;11.70;7.78;;;21.40;99.90;;;;;;5031108;28;20033;-53
2023/08/18 09:28:04;;;;;;;13.32;8.40;;;21.50;99.90;;;;;;5033754;28;20036;-54
2023/08/18 09:30:30;;;;;;;12.98;8.20;;;21.50;99.90;;;;;;5016370;28;20481;-53
2023/08/18 09:32:59;;;;;;;13.95;8.05;;;21.60;99.90;;;;;;5033629;28;20029;-53
2023/08/18 09:35:25;;;;;;;10.77;7.00;;;21.50;99.90;;;;;;5033781;28;20065;-52
2023/08/18 09:37:57;;;;;;;11.30;7.00;;;21.60;99.90;;;;;;5033674;28;20064;-53
2023/08/18 09:40:24;;;;;;;13.52;7.43;;;21.70;99.90;;;;;;5033911;28;20026;-49
2023/08/18 09:42:50;;;;;;;10.82;7.28;;;21.70;99.90;;;;;;5033714;28;20029;-53
2023/08/18 09:45:16;;;;;;;10.00;6.68;;;21.90;99.90;;;;;;5033573;28;20029;-53
2023/08/18 09:47:42;;;;;;;12.10;7.22;;;21.90;99.90;;;;;;5033385;28;20029;-54
2023/08/18 09:50:13;;;;;;;12.52;7.53;;;22.00;99.90;;;;;;5015823;28;20213;-54
2023/08/18 09:52:41;;;;;;;11.15;6.57;;;21.90;99.90;;;;;;5033357;28;20543;-53
2023/08/18 09:55:19;;;;;;;9.00;6.50;;;22.00;99.90;;;;;;5033628;28;20071;-51
2023/08/18 09:57:54;;;;;;;10.85;6.95;;;22.10;99.90;;;;;;5033347;28;20033;-53
2023/08/18 10:00:20;;;;;;;11.02;7.15;;;22.10;99.90;;;;;;5015848;28;20025;-54
2023/08/18 10:02:49;;;;;;;12.25;7.80;;;22.10;99.90;;;;;;5033160;28;20029;-54
2023/08/18 10:05:15;;;;;;;12.40;7.30;;;22.00;99.90;;;;;;5033395;28;20406;-53
2023/08/18 10:07:42;;;;;;;10.20;6.65;;;22.20;99.90;;;;;;5033310;28;20041;-48
2023/08/18 10:10:08;;;;;;;10.93;6.97;;;22.30;99.90;;;;;;5033300;28;20548;-52
2023/08/18 10:12:34;;;;;;;8.43;5.35;;;22.40;99.90;;;;;;5033087;28;20506;-53
2023/08/18 10:15:01;;;;;;;10.30;6.45;;;22.60;99.90;;;;;;5033228;28;20029;-48
2023/08/18 10:17:26;;;;;;;11.85;6.97;;;22.70;99.90;;;;;;5032946;28;20021;-53
2023/08/18 10:19:56;;;;;;;9.15;6.50;;;22.90;99.90;;;;;;5033019;28;20111;-53
2023/08/18 10:22:24;;;;;;;8.68;6.25;;;23.00;99.90;;;;;;5032963;28;20049;-52
2023/08/18 10:24:51;;;;;;;8.95;5.85;;;23.10;99.90;;;;;;5032974;28;20068;-49
2023/08/18 10:27:43;;;;;;;9.55;6.35;;;23.10;99.90;;;;;;5032826;28;20029;-50
2023/08/18 10:30:10;;;;;;;9.82;5.80;;;23.30;99.90;;;;;;5029301;28;20029;-51
2023/08/18 10:32:36;;;;;;;10.30;5.95;;;23.30;99.90;;;;;;5032878;28;20033;-53
2023/08/18 10:35:21;;;;;;;9.10;6.38;;;23.30;99.90;;;;;;5032790;28;20033;-53
2023/08/18 10:37:54;;;;;;;9.18;6.28;;;23.40;99.90;;;;;;5014758;28;20052;-51
2023/08/18 10:40:28;;;;;;;9.48;5.63;;;23.40;99.90;;;;;;5032777;28;20028;-52
2023/08/18 10:43:01;;;;;;;10.63;6.38;;;23.50;99.90;;;;;;5032546;28;20565;-50
2023/08/18 10:45:28;;;;;;;8.52;5.07;;;23.60;99.90;;;;;;5015231;28;20060;-53
2023/08/18 10:48:01;;;;;;;9.88;5.93;;;23.60;99.90;;;;;;5014956;28;20037;-53
2023/08/18 10:50:34;;;;;;;10.25;5.88;;;23.80;99.90;;;;;;5032871;28;20478;-52
2023/08/18 10:53:03;;;;;;;10.68;6.05;;;23.90;99.90;;;;;;5032364;28;20153;-54
2023/08/18 10:55:30;;;;;;;8.77;5.97;;;23.90;99.90;;;;;;5032556;28;20045;-53
2023/08/18 10:57:55;;;;;;;9.55;6.15;;;23.90;99.90;;;;;;5032354;28;20037;-51
2023/08/18 11:00:21;;;;;;;9.25;6.20;;;23.90;99.90;;;;;;5032535;28;20120;-53
2023/08/18 11:02:51;;;;;;;9.00;5.85;;;23.90;99.90;;;;;;5032078;28;20067;-51
2023/08/18 11:05:18;;;;;;;9.60;6.35;;;23.90;99.90;;;;;;5032398;28;20038;-51
2023/08/18 11:07:44;;;;;;;9.93;6.32;;;23.90;99.90;;;;;;5032076;28;20041;-49
2023/08/18 11:10:21;;;;;;;12.60;6.80;;;23.90;99.90;;;;;;5032409;28;20037;-51
2023/08/18 11:12:49;;;;;;;12.07;7.80;;;24.10;99.90;;;;;;5031849;28;20025;-49
2023/08/18 11:15:18;;;;;;;13.52;7.60;;;24.10;99.90;;;;;;5031942;28;20039;-50
2023/08/18 11:17:43;;;;;;;13.60;7.80;;;24.10;99.90;;;;;;5031715;28;20033;-51
2023/08/18 11:20:13;;;;;;;11.77;7.10;;;24.20;99.90;;;;;;5031757;28;20124;-51
2023/08/18 11:22:42;;;;;;;12.38;7.50;;;24.20;99.90;;;;;;5031747;28;20030;-49
2023/08/18 11:25:11;;;;;;;12.45;7.45;;;24.30;99.90;;;;;;5031717;28;20060;-48
2023/08/18 11:27:40;;;;;;;12.90;8.48;;;24.30;99.90;;;;;;5031684;28;20038;-49
2023/08/18 11:30:10;;;;;;;13.68;8.30;;;24.40;99.90;;;;;;5032079;28;20492;-50
2023/08/18 11:32:37;;;;;;;12.38;7.72;;;24.40;99.90;;;;;;5031253;28;20032;-50
2023/08/18 11:35:07;;;;;;;12.93;7.47;;;24.40;99.90;;;;;;5031585;28;20118;-48
2023/08/18 11:37:41;;;;;;;12.98;7.65;;;24.50;99.90;;;;;;5031711;28;20033;-51
2023/08/18 11:40:14;;;;;;;12.10;7.45;;;24.50;99.90;;;;;;5031598;28;20037;-49
2023/08/18 11:42:41;;;;;;;11.90;7.63;;;24.50;99.90;;;;;;5031340;28;20116;-50
2023/08/18 11:45:15;;;;;;;13.13;7.85;;;24.60;99.90;;;;;;5031732;28;20124;-53
2023/08/18 11:47:42;;;;;;;15.93;9.48;;;24.70;99.90;;;;;;5031131;28;20104;-49
2023/08/18 11:50:07;;;;;;;12.48;7.75;;;24.70;99.90;;;;;;5031310;28;20080;-49
2023/08/18 11:52:43;;;;;;;13.40;8.18;;;24.70;99.90;;;;;;5031608;28;20030;-49
2023/08/18 11:55:10;;;;;;;13.38;8.90;;;24.80;99.90;;;;;;5031656;28;20041;-48
2023/08/18 11:57:40;;;;;;;12.80;8.27;;;24.90;99.90;;;;;;5031345;28;20037;-48
2023/08/18 12:00:11;;;;;;;11.65;7.65;;;25.00;99.90;;;;;;5031875;28;20060;-49
2023/08/18 12:02:43;;;;;;;13.65;8.52;;;25.00;99.90;;;;;;5032801;28;20037;-50
2023/08/18 12:05:22;;;;;;;13.25;9.35;;;25.20;99.90;;;;;;5032329;28;20081;-49
2023/08/18 12:07:52;;;;;;;14.00;8.40;;;25.20;99.90;;;;;;5032536;28;20312;-48
2023/08/18 12:10:18;;;;;;;10.88;7.00;;;25.20;99.90;;;;;;5031754;28;20197;-50
2023/08/18 12:12:50;;;;;;;12.57;7.45;;;25.30;99.90;;;;;;5030606;28;20029;-54
2023/08/18 12:15:16;;;;;;;11.95;7.30;;;25.50;99.90;;;;;;5031140;28;20041;-50
2023/08/18 12:17:41;;;;;;;11.07;7.90;;;25.70;99.90;;;;;;5012979;28;20060;-50
2023/08/18 12:20:07;;;;;;;12.88;7.82;;;25.90;99.90;;;;;;5030858;28;20037;-50
2023/08/18 12:22:33;;;;;;;13.50;8.10;;;25.90;99.90;;;;;;5030426;28;20032;-49
2023/08/18 12:24:59;;;;;;;16.02;8.20;;;25.80;99.90;;;;;;5030664;28;20470;-49
2023/08/18 12:27:26;;;;;;;13.25;8.10;;;25.70;99.90;;;;;;5030550;28;20036;-51
2023/08/18 12:29:52;;;;;;;11.37;7.50;;;25.60;99.90;;;;;;5030894;28;20036;-53
2023/08/18 12:32:17;;;;;;;10.80;6.80;;;25.40;99.90;;;;;;5030579;28;20490;-52